sensor_id;sensor_type;location;lat;lon;timestamp;P1;durP1;ratioP1;P2;durP2;ratioP2
10293;SDS011;5192;50.328;7.610;2022-09-12T00:01:03;19.47;;;13.60;;
10293;SDS011;5192;50.328;7.610;2022-09-12T00:03:53;18.60;;;13.07;;
10293;SDS011;5192;50.328;7.610;2022-09-12T00:06:21;18.57;;;13.17;;
10293;SDS011;5192;50.328;7.610;2022-09-12T00:08:53;18.10;;;13.60;;
10293;SDS011;5192;50.328;7.610;2022-09-12T00:11:21;16.17;;;12.20;;
10293;SDS011;5192;50.328;7.610;2022-09-12T00:13:47;17.50;;;12.40;;
10293;SDS011;5192;50.328;7.610;2022-09-12T00:16:24;16.83;;;12.00;;
10293;SDS011;5192;50.328;7.610;2022-09-12T00:19:09;15.00;;;12.77;;
10293;SDS011;5192;50.328;7.610;2022-09-12T00:21:57;15.30;;;12.37;;
10293;SDS011;5192;50.328;7.610;2022-09-12T00:24:25;15.73;;;12.17;;
10293;SDS011;5192;50.328;7.610;2022-09-12T00:26:50;14.10;;;11.90;;
10293;SDS011;5192;50.328;7.610;2022-09-12T00:29:23;20.80;;;13.13;;
10293;SDS011;5192;50.328;7.610;2022-09-12T00:31:51;17.63;;;12.23;;
10293;SDS011;5192;50.328;7.610;2022-09-12T00:34:21;17.67;;;12.77;;
10293;SDS011;5192;50.328;7.610;2022-09-12T00:36:51;15.83;;;12.37;;
10293;SDS011;5192;50.328;7.610;2022-09-12T00:39:21;18.57;;;13.33;;
10293;SDS011;5192;50.328;7.610;2022-09-12T00:41:51;15.80;;;12.13;;
10293;SDS011;5192;50.328;7.610;2022-09-12T00:52:48;17.20;;;12.40;;
10293;SDS011;5192;50.328;7.610;2022-09-12T00:55:55;14.67;;;11.87;;
10293;SDS011;5192;50.328;7.610;2022-09-12T00:59:04;16.17;;;12.37;;
10293;SDS011;5192;50.328;7.610;2022-09-12T01:01:45;17.53;;;12.93;;
10293;SDS011;5192;50.328;7.610;2022-09-12T01:04:53;18.47;;;13.37;;
10293;SDS011;5192;50.328;7.610;2022-09-12T01:07:21;19.00;;;13.10;;
10293;SDS011;5192;50.328;7.610;2022-09-12T01:09:52;17.73;;;12.67;;
10293;SDS011;5192;50.328;7.610;2022-09-12T01:12:22;17.83;;;12.87;;
10293;SDS011;5192;50.328;7.610;2022-09-12T01:14:53;18.43;;;13.33;;
10293;SDS011;5192;50.328;7.610;2022-09-12T01:20:49;16.43;;;12.40;;
10293;SDS011;5192;50.328;7.610;2022-09-12T01:26:48;14.57;;;11.53;;
10293;SDS011;5192;50.328;7.610;2022-09-12T01:36:17;17.47;;;12.67;;
10293;SDS011;5192;50.328;7.610;2022-09-12T01:39:04;15.97;;;12.33;;
10293;SDS011;5192;50.328;7.610;2022-09-12T01:50:50;18.63;;;13.43;;
10293;SDS011;5192;50.328;7.610;2022-09-12T01:53:25;15.67;;;12.30;;
10293;SDS011;5192;50.328;7.610;2022-09-12T01:56:25;17.57;;;13.47;;
10293;SDS011;5192;50.328;7.610;2022-09-12T01:59:43;18.30;;;13.33;;
10293;SDS011;5192;50.328;7.610;2022-09-12T02:01:55;16.97;;;13.20;;
10293;SDS011;5192;50.328;7.610;2022-09-12T02:05:11;19.53;;;14.13;;
10293;SDS011;5192;50.328;7.610;2022-09-12T02:07:56;18.33;;;13.43;;
10293;SDS011;5192;50.328;7.610;2022-09-12T02:11:05;17.47;;;12.33;;
10293;SDS011;5192;50.328;7.610;2022-09-12T02:14:24;19.33;;;13.80;;
10293;SDS011;5192;50.328;7.610;2022-09-12T02:17:23;18.10;;;13.37;;
10293;SDS011;5192;50.328;7.610;2022-09-12T02:19:54;17.97;;;13.20;;
10293;SDS011;5192;50.328;7.610;2022-09-12T02:22:49;18.03;;;13.13;;
10293;SDS011;5192;50.328;7.610;2022-09-12T02:25:32;21.13;;;13.17;;
10293;SDS011;5192;50.328;7.610;2022-09-12T02:28:40;18.93;;;13.13;;
10293;SDS011;5192;50.328;7.610;2022-09-12T02:39:59;26.30;;;13.43;;
10293;SDS011;5192;50.328;7.610;2022-09-12T02:42:41;20.20;;;13.73;;
10293;SDS011;5192;50.328;7.610;2022-09-12T02:45:35;19.67;;;13.27;;
10293;SDS011;5192;50.328;7.610;2022-09-12T02:48:30;20.03;;;14.40;;
10293;SDS011;5192;50.328;7.610;2022-09-12T02:51:20;21.23;;;13.97;;
10293;SDS011;5192;50.328;7.610;2022-09-12T02:53:53;22.00;;;13.33;;
10293;SDS011;5192;50.328;7.610;2022-09-12T02:56:22;19.37;;;15.03;;
10293;SDS011;5192;50.328;7.610;2022-09-12T02:59:06;20.80;;;14.00;;
10293;SDS011;5192;50.328;7.610;2022-09-12T03:08:09;22.07;;;13.73;;
10293;SDS011;5192;50.328;7.610;2022-09-12T03:13:53;19.30;;;13.50;;
10293;SDS011;5192;50.328;7.610;2022-09-12T03:16:49;18.80;;;14.77;;
10293;SDS011;5192;50.328;7.610;2022-09-12T03:25:21;22.40;;;14.07;;
10293;SDS011;5192;50.328;7.610;2022-09-12T03:28:16;20.50;;;14.13;;
10293;SDS011;5192;50.328;7.610;2022-09-12T03:30:47;19.17;;;14.10;;
10293;SDS011;5192;50.328;7.610;2022-09-12T03:33:17;19.57;;;13.63;;
10293;SDS011;5192;50.328;7.610;2022-09-12T03:35:49;17.23;;;13.27;;
10293;SDS011;5192;50.328;7.610;2022-09-12T03:38:16;16.87;;;13.20;;
10293;SDS011;5192;50.328;7.610;2022-09-12T03:40:43;18.20;;;13.93;;
10293;SDS011;5192;50.328;7.610;2022-09-12T03:43:12;19.07;;;13.27;;
10293;SDS011;5192;50.328;7.610;2022-09-12T03:45:40;19.63;;;13.33;;
10293;SDS011;5192;50.328;7.610;2022-09-12T03:48:09;19.47;;;13.30;;
10293;SDS011;5192;50.328;7.610;2022-09-12T03:50:36;18.77;;;13.47;;
10293;SDS011;5192;50.328;7.610;2022-09-12T03:53:04;17.40;;;13.00;;
10293;SDS011;5192;50.328;7.610;2022-09-12T03:55:29;18.73;;;13.83;;
10293;SDS011;5192;50.328;7.610;2022-09-12T03:57:57;18.53;;;13.80;;
10293;SDS011;5192;50.328;7.610;2022-09-12T04:00:23;18.87;;;13.80;;
10293;SDS011;5192;50.328;7.610;2022-09-12T04:02:53;18.10;;;13.57;;
10293;SDS011;5192;50.328;7.610;2022-09-12T04:05:21;19.50;;;13.10;;
10293;SDS011;5192;50.328;7.610;2022-09-12T04:07:47;20.23;;;14.93;;
10293;SDS011;5192;50.328;7.610;2022-09-12T04:10:12;19.13;;;12.70;;
10293;SDS011;5192;50.328;7.610;2022-09-12T04:12:39;21.90;;;14.37;;
10293;SDS011;5192;50.328;7.610;2022-09-12T04:15:05;18.67;;;13.37;;
10293;SDS011;5192;50.328;7.610;2022-09-12T04:17:32;21.43;;;14.00;;
10293;SDS011;5192;50.328;7.610;2022-09-12T04:20:00;21.27;;;13.93;;
10293;SDS011;5192;50.328;7.610;2022-09-12T04:22:26;19.27;;;14.37;;
10293;SDS011;5192;50.328;7.610;2022-09-12T04:24:57;17.37;;;12.87;;
10293;SDS011;5192;50.328;7.610;2022-09-12T04:27:24;21.07;;;13.23;;
10293;SDS011;5192;50.328;7.610;2022-09-12T04:29:51;20.10;;;14.00;;
10293;SDS011;5192;50.328;7.610;2022-09-12T04:32:20;16.67;;;12.40;;
10293;SDS011;5192;50.328;7.610;2022-09-12T04:34:48;18.67;;;12.87;;
10293;SDS011;5192;50.328;7.610;2022-09-12T04:37:14;18.77;;;13.10;;
10293;SDS011;5192;50.328;7.610;2022-09-12T04:39:42;20.37;;;12.90;;
10293;SDS011;5192;50.328;7.610;2022-09-12T04:42:08;25.30;;;12.60;;
10293;SDS011;5192;50.328;7.610;2022-09-12T04:44:35;42.93;;;13.80;;
10293;SDS011;5192;50.328;7.610;2022-09-12T04:47:03;18.30;;;13.17;;
10293;SDS011;5192;50.328;7.610;2022-09-12T04:49:30;21.93;;;14.10;;
10293;SDS011;5192;50.328;7.610;2022-09-12T04:51:56;24.17;;;14.07;;
10293;SDS011;5192;50.328;7.610;2022-09-12T04:54:23;18.93;;;13.70;;
10293;SDS011;5192;50.328;7.610;2022-09-12T04:56:49;27.63;;;14.27;;
10293;SDS011;5192;50.328;7.610;2022-09-12T04:59:18;24.43;;;13.90;;
10293;SDS011;5192;50.328;7.610;2022-09-12T05:01:49;20.33;;;15.07;;
10293;SDS011;5192;50.328;7.610;2022-09-12T05:04:15;24.80;;;14.57;;
10293;SDS011;5192;50.328;7.610;2022-09-12T05:06:44;27.43;;;15.00;;
10293;SDS011;5192;50.328;7.610;2022-09-12T05:09:13;23.37;;;14.83;;
10293;SDS011;5192;50.328;7.610;2022-09-12T05:11:41;25.73;;;16.03;;
10293;SDS011;5192;50.328;7.610;2022-09-12T05:14:09;35.37;;;14.80;;
10293;SDS011;5192;50.328;7.610;2022-09-12T05:16:35;30.77;;;14.87;;
10293;SDS011;5192;50.328;7.610;2022-09-12T05:19:02;64.40;;;16.37;;
10293;SDS011;5192;50.328;7.610;2022-09-12T05:21:30;44.10;;;15.03;;
10293;SDS011;5192;50.328;7.610;2022-09-12T05:23:58;19.87;;;14.30;;
10293;SDS011;5192;50.328;7.610;2022-09-12T05:26:26;21.40;;;14.67;;
10293;SDS011;5192;50.328;7.610;2022-09-12T05:28:53;45.40;;;16.30;;
10293;SDS011;5192;50.328;7.610;2022-09-12T05:31:24;31.00;;;16.03;;
10293;SDS011;5192;50.328;7.610;2022-09-12T05:33:52;39.30;;;16.13;;
10293;SDS011;5192;50.328;7.610;2022-09-12T05:36:22;30.63;;;16.63;;
10293;SDS011;5192;50.328;7.610;2022-09-12T05:38:51;23.90;;;15.47;;
10293;SDS011;5192;50.328;7.610;2022-09-12T05:41:27;27.47;;;17.13;;
10293;SDS011;5192;50.328;7.610;2022-09-12T05:44:04;47.23;;;16.40;;
10293;SDS011;5192;50.328;7.610;2022-09-12T05:46:36;41.53;;;16.80;;
10293;SDS011;5192;50.328;7.610;2022-09-12T05:49:05;34.30;;;16.43;;
10293;SDS011;5192;50.328;7.610;2022-09-12T05:51:36;26.77;;;16.80;;
10293;SDS011;5192;50.328;7.610;2022-09-12T05:54:10;32.57;;;16.90;;
10293;SDS011;5192;50.328;7.610;2022-09-12T05:56:39;25.80;;;16.57;;
10293;SDS011;5192;50.328;7.610;2022-09-12T05:59:12;31.00;;;16.20;;
10293;SDS011;5192;50.328;7.610;2022-09-12T06:01:42;24.40;;;17.03;;
10293;SDS011;5192;50.328;7.610;2022-09-12T06:04:10;26.47;;;16.80;;
10293;SDS011;5192;50.328;7.610;2022-09-12T06:06:39;57.53;;;17.90;;
10293;SDS011;5192;50.328;7.610;2022-09-12T06:09:11;33.33;;;16.70;;
10293;SDS011;5192;50.328;7.610;2022-09-12T06:11:39;79.37;;;18.17;;
10293;SDS011;5192;50.328;7.610;2022-09-12T06:14:09;35.30;;;16.10;;
10293;SDS011;5192;50.328;7.610;2022-09-12T06:16:39;24.67;;;16.67;;
10293;SDS011;5192;50.328;7.610;2022-09-12T06:19:10;29.33;;;15.97;;
10293;SDS011;5192;50.328;7.610;2022-09-12T06:21:39;28.90;;;15.53;;
10293;SDS011;5192;50.328;7.610;2022-09-12T06:24:06;27.23;;;17.20;;
10293;SDS011;5192;50.328;7.610;2022-09-12T06:26:35;22.73;;;15.93;;
10293;SDS011;5192;50.328;7.610;2022-09-12T06:29:02;19.73;;;14.83;;
10293;SDS011;5192;50.328;7.610;2022-09-12T06:31:30;24.23;;;15.70;;
10293;SDS011;5192;50.328;7.610;2022-09-12T06:33:59;24.43;;;16.90;;
10293;SDS011;5192;50.328;7.610;2022-09-12T06:36:33;26.40;;;16.20;;
10293;SDS011;5192;50.328;7.610;2022-09-12T06:39:03;21.70;;;15.53;;
10293;SDS011;5192;50.328;7.610;2022-09-12T06:41:33;25.70;;;17.20;;
10293;SDS011;5192;50.328;7.610;2022-09-12T06:44:01;27.33;;;17.20;;
10293;SDS011;5192;50.328;7.610;2022-09-12T06:46:29;24.07;;;16.97;;
10293;SDS011;5192;50.328;7.610;2022-09-12T06:48:56;24.30;;;16.80;;
10293;SDS011;5192;50.328;7.610;2022-09-12T06:51:24;22.93;;;16.80;;
10293;SDS011;5192;50.328;7.610;2022-09-12T06:53:53;23.13;;;16.23;;
10293;SDS011;5192;50.328;7.610;2022-09-12T06:56:21;22.70;;;16.23;;
10293;SDS011;5192;50.328;7.610;2022-09-12T06:58:54;23.17;;;16.43;;
10293;SDS011;5192;50.328;7.610;2022-09-12T07:01:41;23.30;;;16.47;;
10293;SDS011;5192;50.328;7.610;2022-09-12T07:04:13;23.97;;;15.90;;
10293;SDS011;5192;50.328;7.610;2022-09-12T07:06:41;19.00;;;15.53;;
10293;SDS011;5192;50.328;7.610;2022-09-12T07:09:14;21.63;;;16.53;;
10293;SDS011;5192;50.328;7.610;2022-09-12T07:11:44;21.10;;;16.63;;
10293;SDS011;5192;50.328;7.610;2022-09-12T07:14:23;22.33;;;16.70;;
10293;SDS011;5192;50.328;7.610;2022-09-12T07:16:51;21.27;;;16.13;;
10293;SDS011;5192;50.328;7.610;2022-09-12T07:19:24;23.50;;;17.33;;
10293;SDS011;5192;50.328;7.610;2022-09-12T07:21:53;21.13;;;16.63;;
10293;SDS011;5192;50.328;7.610;2022-09-12T07:24:23;21.17;;;15.23;;
10293;SDS011;5192;50.328;7.610;2022-09-12T07:26:54;17.33;;;14.57;;
10293;SDS011;5192;50.328;7.610;2022-09-12T07:29:32;18.70;;;15.03;;
10293;SDS011;5192;50.328;7.610;2022-09-12T07:32:01;19.43;;;14.23;;
10293;SDS011;5192;50.328;7.610;2022-09-12T07:34:34;18.07;;;14.80;;
10293;SDS011;5192;50.328;7.610;2022-09-12T07:37:00;19.17;;;15.03;;
10293;SDS011;5192;50.328;7.610;2022-09-12T07:39:41;19.63;;;15.00;;
10293;SDS011;5192;50.328;7.610;2022-09-12T07:42:11;20.90;;;15.27;;
10293;SDS011;5192;50.328;7.610;2022-09-12T07:44:44;18.83;;;15.17;;
10293;SDS011;5192;50.328;7.610;2022-09-12T07:47:15;18.87;;;14.77;;
10293;SDS011;5192;50.328;7.610;2022-09-12T07:49:42;18.70;;;14.40;;
10293;SDS011;5192;50.328;7.610;2022-09-12T07:52:14;17.73;;;13.93;;
10293;SDS011;5192;50.328;7.610;2022-09-12T07:54:44;16.67;;;13.83;;
10293;SDS011;5192;50.328;7.610;2022-09-12T07:57:12;15.37;;;13.67;;
10293;SDS011;5192;50.328;7.610;2022-09-12T07:59:39;15.53;;;13.93;;
10293;SDS011;5192;50.328;7.610;2022-09-12T08:02:29;18.00;;;13.50;;
10293;SDS011;5192;50.328;7.610;2022-09-12T08:04:55;16.67;;;14.40;;
10293;SDS011;5192;50.328;7.610;2022-09-12T08:07:22;17.53;;;13.77;;
10293;SDS011;5192;50.328;7.610;2022-09-12T08:09:49;17.70;;;14.13;;
10293;SDS011;5192;50.328;7.610;2022-09-12T08:12:14;19.00;;;15.43;;
10293;SDS011;5192;50.328;7.610;2022-09-12T08:15:05;19.63;;;14.10;;
10293;SDS011;5192;50.328;7.610;2022-09-12T08:17:41;16.93;;;14.17;;
10293;SDS011;5192;50.328;7.610;2022-09-12T08:20:11;18.37;;;15.80;;
10293;SDS011;5192;50.328;7.610;2022-09-12T08:22:58;18.10;;;14.97;;
10293;SDS011;5192;50.328;7.610;2022-09-12T08:25:31;18.00;;;15.37;;
10293;SDS011;5192;50.328;7.610;2022-09-12T08:27:58;20.27;;;14.93;;
10293;SDS011;5192;50.328;7.610;2022-09-12T08:30:31;17.07;;;14.23;;
10293;SDS011;5192;50.328;7.610;2022-09-12T08:33:03;16.27;;;14.33;;
10293;SDS011;5192;50.328;7.610;2022-09-12T08:35:31;15.93;;;13.30;;
10293;SDS011;5192;50.328;7.610;2022-09-12T08:38:03;16.50;;;14.13;;
10293;SDS011;5192;50.328;7.610;2022-09-12T08:40:37;16.00;;;13.07;;
10293;SDS011;5192;50.328;7.610;2022-09-12T08:46:43;16.70;;;13.17;;
10293;SDS011;5192;50.328;7.610;2022-09-12T08:49:58;14.27;;;12.60;;
10293;SDS011;5192;50.328;7.610;2022-09-12T08:55:42;13.43;;;12.03;;
10293;SDS011;5192;50.328;7.610;2022-09-12T09:16:40;11.43;;;10.23;;
10293;SDS011;5192;50.328;7.610;2022-09-12T09:19:11;13.27;;;10.10;;
10293;SDS011;5192;50.328;7.610;2022-09-12T09:22:25;10.13;;;9.03;;
10293;SDS011;5192;50.328;7.610;2022-09-12T09:25:06;9.63;;;8.50;;
10293;SDS011;5192;50.328;7.610;2022-09-12T09:31:15;9.10;;;8.20;;
10293;SDS011;5192;50.328;7.610;2022-09-12T09:34:27;9.50;;;8.60;;
10293;SDS011;5192;50.328;7.610;2022-09-12T09:40:23;9.60;;;8.60;;
10293;SDS011;5192;50.328;7.610;2022-09-12T09:46:01;8.47;;;7.67;;
10293;SDS011;5192;50.328;7.610;2022-09-12T09:48:30;10.80;;;8.70;;
10293;SDS011;5192;50.328;7.610;2022-09-12T09:51:12;9.07;;;7.90;;
10293;SDS011;5192;50.328;7.610;2022-09-12T09:53:55;9.10;;;7.87;;
10293;SDS011;5192;50.328;7.610;2022-09-12T10:03:24;8.03;;;7.23;;
10293;SDS011;5192;50.328;7.610;2022-09-12T10:06:21;8.47;;;7.33;;
10293;SDS011;5192;50.328;7.610;2022-09-12T10:09:34;7.83;;;7.13;;
10293;SDS011;5192;50.328;7.610;2022-09-12T10:15:00;8.43;;;7.40;;
10293;SDS011;5192;50.328;7.610;2022-09-12T10:17:55;7.80;;;7.10;;
10293;SDS011;5192;50.328;7.610;2022-09-12T10:26:21;8.25;;;7.55;;
10293;SDS011;5192;50.328;7.610;2022-09-12T10:28:50;8.82;;;7.95;;
10293;SDS011;5192;50.328;7.610;2022-09-12T10:31:40;7.53;;;6.82;;
10293;SDS011;5192;50.328;7.610;2022-09-12T10:34:42;7.23;;;6.60;;
10293;SDS011;5192;50.328;7.610;2022-09-12T10:37:32;7.57;;;6.90;;
10293;SDS011;5192;50.328;7.610;2022-09-12T10:40:26;6.85;;;6.15;;
10293;SDS011;5192;50.328;7.610;2022-09-12T10:46:25;6.60;;;6.00;;
10293;SDS011;5192;50.328;7.610;2022-09-12T10:52:24;5.30;;;4.85;;
10293;SDS011;5192;50.328;7.610;2022-09-12T10:54:51;4.82;;;4.50;;
10293;SDS011;5192;50.328;7.610;2022-09-12T10:57:22;4.43;;;4.13;;
10293;SDS011;5192;50.328;7.610;2022-09-12T11:00:13;4.32;;;3.92;;
10293;SDS011;5192;50.328;7.610;2022-09-12T11:20:05;4.93;;;3.88;;
10293;SDS011;5192;50.328;7.610;2022-09-12T11:41:26;3.90;;;3.38;;
10293;SDS011;5192;50.328;7.610;2022-09-12T11:47:14;3.45;;;3.25;;
10293;SDS011;5192;50.328;7.610;2022-09-12T11:49:55;3.95;;;3.65;;
10293;SDS011;5192;50.328;7.610;2022-09-12T11:53:12;3.63;;;3.33;;
10293;SDS011;5192;50.328;7.610;2022-09-12T11:58:42;4.05;;;3.75;;
10293;SDS011;5192;50.328;7.610;2022-09-12T12:01:26;3.80;;;3.53;;
10293;SDS011;5192;50.328;7.610;2022-09-12T12:04:14;3.55;;;3.25;;
10293;SDS011;5192;50.328;7.610;2022-09-12T12:09:45;3.90;;;3.60;;
10293;SDS011;5192;50.328;7.610;2022-09-12T12:12:36;3.90;;;3.58;;
10293;SDS011;5192;50.328;7.610;2022-09-12T12:15:15;4.15;;;3.75;;
10293;SDS011;5192;50.328;7.610;2022-09-12T12:18:41;4.20;;;3.80;;
10293;SDS011;5192;50.328;7.610;2022-09-12T12:27:03;3.78;;;3.47;;
10293;SDS011;5192;50.328;7.610;2022-09-12T12:29:56;4.30;;;4.00;;
10293;SDS011;5192;50.328;7.610;2022-09-12T12:32:24;4.00;;;3.70;;
10293;SDS011;5192;50.328;7.610;2022-09-12T12:35:43;3.78;;;3.55;;
10293;SDS011;5192;50.328;7.610;2022-09-12T12:38:25;3.70;;;3.42;;
10293;SDS011;5192;50.328;7.610;2022-09-12T12:43:53;4.90;;;3.70;;
10293;SDS011;5192;50.328;7.610;2022-09-12T12:46:42;4.15;;;3.30;;
10293;SDS011;5192;50.328;7.610;2022-09-12T12:49:48;3.72;;;3.40;;
10293;SDS011;5192;50.328;7.610;2022-09-12T12:52:47;3.75;;;3.50;;
10293;SDS011;5192;50.328;7.610;2022-09-12T12:56:02;3.80;;;3.60;;
10293;SDS011;5192;50.328;7.610;2022-09-12T12:58:35;3.78;;;3.47;;
10293;SDS011;5192;50.328;7.610;2022-09-12T13:01:13;3.80;;;3.50;;
10293;SDS011;5192;50.328;7.610;2022-09-12T13:04:04;3.53;;;3.22;;
10293;SDS011;5192;50.328;7.610;2022-09-12T13:07:11;3.38;;;3.17;;
10293;SDS011;5192;50.328;7.610;2022-09-12T13:10:25;3.50;;;3.30;;
10293;SDS011;5192;50.328;7.610;2022-09-12T13:13:46;3.50;;;3.30;;
10293;SDS011;5192;50.328;7.610;2022-09-12T13:16:58;3.78;;;3.47;;
10293;SDS011;5192;50.328;7.610;2022-09-12T13:20:06;3.83;;;3.40;;
10293;SDS011;5192;50.328;7.610;2022-09-12T13:23:29;3.60;;;3.40;;
10293;SDS011;5192;50.328;7.610;2022-09-12T13:26:39;3.35;;;3.15;;
10293;SDS011;5192;50.328;7.610;2022-09-12T13:29:32;3.10;;;2.90;;
10293;SDS011;5192;50.328;7.610;2022-09-12T13:32:02;3.20;;;3.00;;
10293;SDS011;5192;50.328;7.610;2022-09-12T13:34:34;3.08;;;2.88;;
10293;SDS011;5192;50.328;7.610;2022-09-12T13:43:50;2.95;;;2.75;;
10293;SDS011;5192;50.328;7.610;2022-09-12T13:46:18;3.42;;;2.95;;
10293;SDS011;5192;50.328;7.610;2022-09-12T13:49:17;3.40;;;3.10;;
10293;SDS011;5192;50.328;7.610;2022-09-12T13:52:06;3.15;;;2.75;;
10293;SDS011;5192;50.328;7.610;2022-09-12T13:54:54;2.75;;;2.65;;
10293;SDS011;5192;50.328;7.610;2022-09-12T13:58:04;2.95;;;2.70;;
10293;SDS011;5192;50.328;7.610;2022-09-12T14:01:06;2.80;;;2.60;;
10293;SDS011;5192;50.328;7.610;2022-09-12T14:04:22;3.20;;;2.95;;
10293;SDS011;5192;50.328;7.610;2022-09-12T14:07:13;3.20;;;3.00;;
10293;SDS011;5192;50.328;7.610;2022-09-12T14:10:05;3.53;;;2.95;;
10293;SDS011;5192;50.328;7.610;2022-09-12T14:12:48;3.20;;;2.90;;
10293;SDS011;5192;50.328;7.610;2022-09-12T14:15:38;3.28;;;2.95;;
10293;SDS011;5192;50.328;7.610;2022-09-12T14:18:18;3.13;;;2.90;;
10293;SDS011;5192;50.328;7.610;2022-09-12T14:21:11;3.53;;;3.25;;
10293;SDS011;5192;50.328;7.610;2022-09-12T14:24:03;3.75;;;2.90;;
10293;SDS011;5192;50.328;7.610;2022-09-12T14:26:35;3.22;;;2.92;;
10293;SDS011;5192;50.328;7.610;2022-09-12T14:29:23;2.97;;;2.78;;
10293;SDS011;5192;50.328;7.610;2022-09-12T14:32:00;3.15;;;2.78;;
10293;SDS011;5192;50.328;7.610;2022-09-12T14:34:32;3.35;;;3.05;;
10293;SDS011;5192;50.328;7.610;2022-09-12T14:37:04;3.75;;;3.10;;
10293;SDS011;5192;50.328;7.610;2022-09-12T14:39:47;2.88;;;2.53;;
10293;SDS011;5192;50.328;7.610;2022-09-12T14:42:17;3.55;;;3.25;;
10293;SDS011;5192;50.328;7.610;2022-09-12T14:45:10;3.45;;;3.25;;
10293;SDS011;5192;50.328;7.610;2022-09-12T14:47:46;3.63;;;3.33;;
10293;SDS011;5192;50.328;7.610;2022-09-12T14:50:33;4.18;;;3.33;;
10293;SDS011;5192;50.328;7.610;2022-09-12T14:53:06;3.20;;;3.00;;
10293;SDS011;5192;50.328;7.610;2022-09-12T14:56:14;3.67;;;2.72;;
10293;SDS011;5192;50.328;7.610;2022-09-12T14:58:44;3.40;;;3.10;;
10293;SDS011;5192;50.328;7.610;2022-09-12T15:09:11;4.05;;;3.05;;
10293;SDS011;5192;50.328;7.610;2022-09-12T15:11:38;2.83;;;2.63;;
10293;SDS011;5192;50.328;7.610;2022-09-12T15:14:14;3.30;;;2.97;;
10293;SDS011;5192;50.328;7.610;2022-09-12T15:17:06;3.28;;;2.97;;
10293;SDS011;5192;50.328;7.610;2022-09-12T15:19:41;2.90;;;2.70;;
10293;SDS011;5192;50.328;7.610;2022-09-12T15:22:09;2.90;;;2.70;;
10293;SDS011;5192;50.328;7.610;2022-09-12T15:24:37;3.40;;;3.10;;
10293;SDS011;5192;50.328;7.610;2022-09-12T15:27:11;3.70;;;3.40;;
10293;SDS011;5192;50.328;7.610;2022-09-12T15:29:38;3.20;;;2.92;;
10293;SDS011;5192;50.328;7.610;2022-09-12T15:32:05;3.40;;;3.10;;
10293;SDS011;5192;50.328;7.610;2022-09-12T15:34:37;3.80;;;3.50;;
10293;SDS011;5192;50.328;7.610;2022-09-12T15:37:07;3.13;;;2.92;;
10293;SDS011;5192;50.328;7.610;2022-09-12T15:39:39;3.42;;;3.20;;
10293;SDS011;5192;50.328;7.610;2022-09-12T15:42:07;3.17;;;2.97;;
10293;SDS011;5192;50.328;7.610;2022-09-12T15:44:35;3.67;;;3.38;;
10293;SDS011;5192;50.328;7.610;2022-09-12T15:47:02;3.63;;;3.33;;
10293;SDS011;5192;50.328;7.610;2022-09-12T15:49:30;3.45;;;3.22;;
10293;SDS011;5192;50.328;7.610;2022-09-12T15:51:57;3.08;;;2.88;;
10293;SDS011;5192;50.328;7.610;2022-09-12T15:54:24;3.50;;;3.20;;
10293;SDS011;5192;50.328;7.610;2022-09-12T15:56:52;3.70;;;3.40;;
10293;SDS011;5192;50.328;7.610;2022-09-12T15:59:18;3.63;;;3.33;;
10293;SDS011;5192;50.328;7.610;2022-09-12T16:01:45;4.00;;;3.70;;
10293;SDS011;5192;50.328;7.610;2022-09-12T16:04:22;3.50;;;3.30;;
10293;SDS011;5192;50.328;7.610;2022-09-12T16:06:58;3.70;;;3.28;;
10293;SDS011;5192;50.328;7.610;2022-09-12T16:09:26;3.50;;;3.20;;
10293;SDS011;5192;50.328;7.610;2022-09-12T16:11:53;3.53;;;3.10;;
10293;SDS011;5192;50.328;7.610;2022-09-12T16:14:19;3.35;;;3.10;;
10293;SDS011;5192;50.328;7.610;2022-09-12T16:16:51;3.63;;;3.33;;
10293;SDS011;5192;50.328;7.610;2022-09-12T16:19:20;3.95;;;3.65;;
10293;SDS011;5192;50.328;7.610;2022-09-12T16:21:48;4.35;;;3.50;;
10293;SDS011;5192;50.328;7.610;2022-09-12T16:24:13;3.90;;;3.60;;
10293;SDS011;5192;50.328;7.610;2022-09-12T16:26:41;3.50;;;3.30;;
10293;SDS011;5192;50.328;7.610;2022-09-12T16:29:08;3.85;;;3.53;;
10293;SDS011;5192;50.328;7.610;2022-09-12T16:31:37;3.97;;;3.67;;
10293;SDS011;5192;50.328;7.610;2022-09-12T16:34:04;3.60;;;3.30;;
10293;SDS011;5192;50.328;7.610;2022-09-12T16:36:31;3.50;;;3.30;;
10293;SDS011;5192;50.328;7.610;2022-09-12T16:38:57;3.72;;;3.42;;
10293;SDS011;5192;50.328;7.610;2022-09-12T16:41:23;3.78;;;3.47;;
10293;SDS011;5192;50.328;7.610;2022-09-12T16:43:49;3.72;;;3.42;;
10293;SDS011;5192;50.328;7.610;2022-09-12T16:46:19;3.88;;;3.58;;
10293;SDS011;5192;50.328;7.610;2022-09-12T16:48:49;3.42;;;3.22;;
10293;SDS011;5192;50.328;7.610;2022-09-12T16:51:17;6.47;;;4.13;;
10293;SDS011;5192;50.328;7.610;2022-09-12T16:53:46;3.47;;;3.28;;
10293;SDS011;5192;50.328;7.610;2022-09-12T16:56:12;3.50;;;3.30;;
10293;SDS011;5192;50.328;7.610;2022-09-12T16:58:39;4.07;;;3.53;;
10293;SDS011;5192;50.328;7.610;2022-09-12T17:01:10;3.60;;;3.30;;
10293;SDS011;5192;50.328;7.610;2022-09-12T17:03:40;3.90;;;3.60;;
10293;SDS011;5192;50.328;7.610;2022-09-12T17:09:12;3.78;;;3.42;;
10293;SDS011;5192;50.328;7.610;2022-09-12T17:11:45;4.65;;;3.55;;
10293;SDS011;5192;50.328;7.610;2022-09-12T17:14:14;3.75;;;3.47;;
10293;SDS011;5192;50.328;7.610;2022-09-12T17:16:43;3.95;;;3.58;;
10293;SDS011;5192;50.328;7.610;2022-09-12T17:19:13;3.85;;;3.40;;
10293;SDS011;5192;50.328;7.610;2022-09-12T17:21:42;3.97;;;3.42;;
10293;SDS011;5192;50.328;7.610;2022-09-12T17:24:11;3.78;;;3.40;;
10293;SDS011;5192;50.328;7.610;2022-09-12T17:26:37;3.88;;;3.50;;
10293;SDS011;5192;50.328;7.610;2022-09-12T17:29:05;3.58;;;3.28;;
10293;SDS011;5192;50.328;7.610;2022-09-12T17:31:32;4.00;;;3.60;;
10293;SDS011;5192;50.328;7.610;2022-09-12T17:33:58;3.95;;;3.65;;
10293;SDS011;5192;50.328;7.610;2022-09-12T17:36:26;5.80;;;3.78;;
10293;SDS011;5192;50.328;7.610;2022-09-12T17:38:52;3.55;;;3.25;;
10293;SDS011;5192;50.328;7.610;2022-09-12T17:41:21;4.32;;;3.70;;
10293;SDS011;5192;50.328;7.610;2022-09-12T17:43:56;5.55;;;3.95;;
10293;SDS011;5192;50.328;7.610;2022-09-12T17:46:25;4.95;;;3.85;;
10293;SDS011;5192;50.328;7.610;2022-09-12T17:49:00;3.90;;;3.58;;
10293;SDS011;5192;50.328;7.610;2022-09-12T17:51:29;3.50;;;3.20;;
10293;SDS011;5192;50.328;7.610;2022-09-12T17:56:31;3.80;;;3.15;;
10293;SDS011;5192;50.328;7.610;2022-09-12T17:58:59;3.55;;;3.25;;
10293;SDS011;5192;50.328;7.610;2022-09-12T18:01:25;3.63;;;3.33;;
10293;SDS011;5192;50.328;7.610;2022-09-12T18:04:13;3.90;;;3.50;;
10293;SDS011;5192;50.328;7.610;2022-09-12T18:06:45;4.32;;;3.58;;
10293;SDS011;5192;50.328;7.610;2022-09-12T18:09:13;6.03;;;4.13;;
10293;SDS011;5192;50.328;7.610;2022-09-12T18:11:42;6.43;;;5.80;;
10293;SDS011;5192;50.328;7.610;2022-09-12T18:14:07;7.00;;;5.87;;
10293;SDS011;5192;50.328;7.610;2022-09-12T18:16:34;6.70;;;5.90;;
10293;SDS011;5192;50.328;7.610;2022-09-12T18:19:00;6.10;;;4.97;;
10293;SDS011;5192;50.328;7.610;2022-09-12T18:21:27;4.43;;;4.03;;
10293;SDS011;5192;50.328;7.610;2022-09-12T18:23:54;4.88;;;3.47;;
10293;SDS011;5192;50.328;7.610;2022-09-12T18:26:23;4.70;;;3.28;;
10293;SDS011;5192;50.328;7.610;2022-09-12T18:28:52;4.43;;;3.10;;
10293;SDS011;5192;50.328;7.610;2022-09-12T18:31:19;3.87;;;3.10;;
10293;SDS011;5192;50.328;7.610;2022-09-12T18:33:49;3.50;;;3.20;;
10293;SDS011;5192;50.328;7.610;2022-09-12T18:36:16;4.05;;;3.00;;
10293;SDS011;5192;50.328;7.610;2022-09-12T18:38:45;3.40;;;3.10;;
10293;SDS011;5192;50.328;7.610;2022-09-12T18:41:24;3.43;;;3.23;;
10293;SDS011;5192;50.328;7.610;2022-09-12T18:43:55;3.60;;;3.30;;
10293;SDS011;5192;50.328;7.610;2022-09-12T18:46:23;4.78;;;3.08;;
10293;SDS011;5192;50.328;7.610;2022-09-12T18:48:53;3.42;;;3.22;;